Time;durP1;ratioP1;P1;durP2;ratioP2;P2;SDS_P1;SDS_P2;PMS_P1;PMS_P2;Temp;Humidity;BMP_temperature;BMP_pressure;BME280_temperature;BME280_humidity;BME280_pressure;Samples;Min_cycle;Max_cycle;Signal;HPM_P1;HPM_P2
2023/11/23 00:00:56;;;;;;;;;;;;;;;26.58;14.84;98823.19;5079695;28;19916;-86
2023/11/23 00:03:22;;;;;;;;;;;;;;;26.78;15.06;98829.63;5083549;28;19943;-86
2023/11/23 00:05:48;;;;;;;;;;;;;;;26.47;15.13;98833.84;5080795;28;19920;-86
2023/11/23 00:08:14;;;;;;;;;;;;;;;26.50;15.34;98831.00;5090416;28;19924;-86
2023/11/23 00:10:40;;;;;;;;;;;;;;;26.67;14.93;98812.94;5085368;28;19921;-86
2023/11/23 00:13:06;;;;;;;;;;;;;;;26.61;14.69;98817.47;5078965;28;19928;-86
2023/11/23 00:15:32;;;;;;;;;;;;;;;26.70;15.11;98814.06;5086591;28;19921;-86
2023/11/23 00:17:59;;;;;;;;;;;;;;;26.83;14.70;98803.78;5076679;28;20015;-86
2023/11/23 00:20:25;;;;;;;;;;;;;;;26.96;14.81;98801.06;5075539;28;19953;-85
2023/11/23 00:22:51;;;;;;;;;;;;;;;26.97;14.80;98800.66;5085589;28;19938;-85
2023/11/23 00:25:17;;;;;;;;;;;;;;;27.00;14.74;98796.94;5081569;28;19973;-86
2023/11/23 00:27:43;;;;;;;;;;;;;;;26.89;14.45;98790.75;5086937;28;19920;-85
2023/11/23 00:30:09;;;;;;;;;;;;;;;26.81;14.70;98796.97;5086538;28;19927;-85
2023/11/23 00:32:35;;;;;;;;;;;;;;;26.79;14.76;98800.25;5081504;28;19920;-85
2023/11/23 00:35:01;;;;;;;;;;;;;;;26.79;14.79;98788.19;5082401;28;19930;-85
2023/11/23 00:37:28;;;;;;;;;;;;;;;26.67;14.66;98798.06;5089684;28;20331;-85
2023/11/23 00:39:54;;;;;;;;;;;;;;;26.25;15.42;98796.09;5088603;28;19920;-85
2023/11/23 00:42:20;;;;;;;;;;;;;;;26.53;15.29;98785.06;5088832;28;19976;-85
2023/11/23 00:44:47;;;;;;;;;;;;;;;26.61;15.15;98778.03;5092722;28;19920;-85
2023/11/23 00:47:13;;;;;;;;;;;;;;;26.77;15.05;98776.56;5086061;28;19973;-86
2023/11/23 00:49:40;;;;;;;;;;;;;;;26.93;14.97;98770.94;5087049;28;19928;-85
2023/11/23 00:52:06;;;;;;;;;;;;;;;26.85;15.22;98770.31;5094021;28;19927;-85
2023/11/23 00:54:39;;;;;;;;;;;;;;;26.88;15.06;98760.19;5095662;28;20466;-86
2023/11/23 00:57:06;;;;;;;;;;;;;;;26.65;15.14;98769.53;5094842;28;20019;-85
2023/11/23 00:59:34;;;;;;;;;;;;;;;26.52;15.15;98774.22;5091761;28;19928;-85
2023/11/23 01:02:01;;;;;;;;;;;;;;;26.53;15.19;98765.34;5092407;28;19981;-86
2023/11/23 01:04:27;;;;;;;;;;;;;;;26.20;15.33;98766.44;5084848;28;19924;-85
2023/11/23 01:06:54;;;;;;;;;;;;;;;26.12;15.28;98759.34;5079401;28;19956;-85
2023/11/23 01:09:20;;;;;;;;;;;;;;;24.66;16.16;98756.47;5081342;28;19951;-84
2023/11/23 01:11:46;;;;;;;;;;;;;;;24.63;16.38;98752.47;5082376;28;19920;-85
2023/11/23 01:14:13;;;;;;;;;;;;;;;24.83;16.62;98758.28;5087597;28;20083;-85
2023/11/23 01:16:39;;;;;;;;;;;;;;;24.74;16.29;98755.94;5079031;28;19974;-85
2023/11/23 01:19:05;;;;;;;;;;;;;;;24.89;16.17;98759.38;5087805;28;19916;-85
2023/11/23 01:21:31;;;;;;;;;;;;;;;24.56;16.56;98746.97;5083408;28;19938;-85
2023/11/23 01:23:57;;;;;;;;;;;;;;;25.10;16.54;98739.38;5082337;28;19924;-86
2023/11/23 01:26:23;;;;;;;;;;;;;;;24.71;16.66;98728.69;5076049;28;19965;-85
2023/11/23 01:28:49;;;;;;;;;;;;;;;24.83;16.46;98718.94;5075493;28;19921;-85
2023/11/23 01:31:15;;;;;;;;;;;;;;;25.29;16.39;98704.94;5083020;28;20320;-85
2023/11/23 01:33:41;;;;;;;;;;;;;;;25.59;16.03;98708.88;5080146;28;19931;-85
2023/11/23 01:36:07;;;;;;;;;;;;;;;25.81;15.76;98687.56;5077678;28;19928;-85
2023/11/23 01:38:33;;;;;;;;;;;;;;;25.95;15.59;98676.81;5078731;28;20287;-85
2023/11/23 01:41:00;;;;;;;;;;;;;;;26.27;15.44;98675.41;5082639;28;20033;-85
2023/11/23 01:43:26;;;;;;;;;;;;;;;26.23;15.53;98678.31;5080118;28;19920;-85
2023/11/23 01:45:52;;;;;;;;;;;;;;;25.71;15.58;98674.50;5090286;28;20007;-85
2023/11/23 01:48:19;;;;;;;;;;;;;;;25.39;15.82;98675.84;5073714;28;19921;-85
2023/11/23 01:50:45;;;;;;;;;;;;;;;24.85;16.40;98684.81;5086221;28;19955;-85
2023/11/23 01:53:11;;;;;;;;;;;;;;;23.78;17.17;98679.72;5088928;28;19923;-85
2023/11/23 01:55:38;;;;;;;;;;;;;;;24.29;16.83;98675.16;5083326;28;19962;-85
2023/11/23 01:58:06;;;;;;;;;;;;;;;24.46;16.69;98668.47;5078317;28;20015;-85
2023/11/23 02:00:32;;;;;;;;;;;;;;;24.53;16.71;98671.19;5075854;28;19921;-85
2023/11/23 02:03:00;;;;;;;;;;;;;;;24.55;16.78;98680.00;5077541;28;19920;-85
2023/11/23 02:05:26;;;;;;;;;;;;;;;24.13;17.10;98672.16;5087866;28;20011;-86
2023/11/23 02:07:52;;;;;;;;;;;;;;;24.65;16.89;98665.81;5080043;28;20334;-86
2023/11/23 02:10:19;;;;;;;;;;;;;;;25.16;16.37;98672.22;5083056;28;19916;-85
2023/11/23 02:12:51;;;;;;;;;;;;;;;25.60;16.12;98662.66;5079717;28;20027;-86
2023/11/23 02:15:20;;;;;;;;;;;;;;;26.04;15.52;98657.31;5079882;28;19917;-86
2023/11/23 02:17:46;;;;;;;;;;;;;;;25.94;15.67;98661.19;5081988;28;20328;-86
2023/11/23 02:20:13;;;;;;;;;;;;;;;25.95;15.40;98659.16;5084769;28;19929;-87
2023/11/23 02:22:39;;;;;;;;;;;;;;;25.91;15.52;98655.59;5074590;28;19925;-87
2023/11/23 02:25:06;;;;;;;;;;;;;;;25.82;15.44;98652.56;5085743;28;20053;-87
2023/11/23 02:27:35;;;;;;;;;;;;;;;25.71;15.59;98661.22;5083244;28;19928;-87
2023/11/23 02:30:02;;;;;;;;;;;;;;;25.39;16.04;98655.41;5076045;28;19932;-87
2023/11/23 02:32:28;;;;;;;;;;;;;;;25.07;16.10;98658.75;5074492;28;19928;-87
2023/11/23 02:34:54;;;;;;;;;;;;;;;24.58;16.48;98656.69;5080845;28;19927;-87
2023/11/23 02:37:20;;;;;;;;;;;;;;;24.71;16.34;98661.28;5077179;28;19916;-87
2023/11/23 02:39:46;;;;;;;;;;;;;;;24.62;16.50;98652.59;5086417;28;20419;-86
2023/11/23 02:42:12;;;;;;;;;;;;;;;24.46;16.71;98637.59;5082470;28;20273;-87
2023/11/23 02:44:38;;;;;;;;;;;;;;;25.07;16.37;98621.41;5082316;28;19975;-86
2023/11/23 02:47:04;;;;;;;;;;;;;;;24.44;16.74;98618.38;5082301;28;19920;-86
2023/11/23 02:49:31;;;;;;;;;;;;;;;23.75;17.25;98621.72;5076309;28;19917;-86
2023/11/23 02:51:59;;;;;;;;;;;;;;;23.45;17.49;98620.84;5081900;28;19928;-87
2023/11/23 02:54:25;;;;;;;;;;;;;;;23.34;17.47;98618.13;5075078;28;20381;-86
2023/11/23 02:56:51;;;;;;;;;;;;;;;23.21;17.70;98609.47;5084420;28;20295;-86
2023/11/23 02:59:17;;;;;;;;;;;;;;;23.16;17.74;98615.50;5090615;28;19990;-86
2023/11/23 03:01:43;;;;;;;;;;;;;;;23.23;17.59;98606.22;5089574;28;19973;-86
2023/11/23 03:04:10;;;;;;;;;;;;;;;22.93;17.85;98614.53;5080091;28;20027;-86
2023/11/23 03:06:36;;;;;;;;;;;;;;;22.88;18.01;98607.38;5093280;28;20376;-86
2023/11/23 03:09:02;;;;;;;;;;;;;;;22.64;18.16;98595.16;5076351;28;19924;-86
2023/11/23 03:11:29;;;;;;;;;;;;;;;22.37;18.50;98602.53;5080317;28;20337;-86
2023/11/23 03:13:57;;;;;;;;;;;;;;;22.34;18.48;98600.56;5081894;28;19935;-86
2023/11/23 03:16:26;;;;;;;;;;;;;;;22.36;18.38;98600.13;5089710;28;19954;-86
2023/11/23 03:18:52;;;;;;;;;;;;;;;22.58;18.24;98596.00;5084102;28;19971;-86
2023/11/23 03:21:18;;;;;;;;;;;;;;;22.80;18.04;98585.44;5089129;28;19928;-87
2023/11/23 03:23:45;;;;;;;;;;;;;;;22.86;18.00;98586.59;5088963;28;19926;-87
2023/11/23 03:26:11;;;;;;;;;;;;;;;22.95;17.86;98578.50;5091426;28;19931;-86
2023/11/23 03:28:37;;;;;;;;;;;;;;;23.07;17.67;98569.59;5077182;28;19920;-86
2023/11/23 03:31:05;;;;;;;;;;;;;;;23.14;17.60;98573.13;5081871;28;19968;-87
2023/11/23 03:33:32;;;;;;;;;;;;;;;23.18;17.65;98570.25;5086676;28;19927;-86
2023/11/23 03:35:58;;;;;;;;;;;;;;;23.25;17.68;98578.59;5083758;28;20022;-87
2023/11/23 03:38:24;;;;;;;;;;;;;;;23.17;17.79;98574.28;5083237;28;20019;-88
2023/11/23 03:40:50;;;;;;;;;;;;;;;23.24;17.57;98585.44;5078649;28;20015;-88
2023/11/23 03:43:16;;;;;;;;;;;;;;;23.23;17.75;98583.81;5079511;28;19927;-88
2023/11/23 03:45:42;;;;;;;;;;;;;;;23.17;17.81;98574.28;5085945;28;19924;-88
2023/11/23 03:48:08;;;;;;;;;;;;;;;23.20;17.66;98576.25;5088791;28;19920;-88
2023/11/23 03:50:34;;;;;;;;;;;;;;;23.10;17.64;98571.56;5082824;28;19971;-89
2023/11/23 03:53:00;;;;;;;;;;;;;;;23.16;17.90;98570.69;5083078;28;19931;-88
2023/11/23 03:55:26;;;;;;;;;;;;;;;23.10;18.12;98572.38;5080361;28;19916;-88
2023/11/23 03:57:53;;;;;;;;;;;;;;;23.10;17.98;98568.75;5083376;28;19925;-88
2023/11/23 04:00:21;;;;;;;;;;;;;;;23.15;17.88;98565.50;5068423;28;19923;-88
2023/11/23 04:02:47;;;;;;;;;;;;;;;23.24;17.81;98572.19;5076769;28;19937;-89
2023/11/23 04:05:19;;;;;;;;;;;;;;;23.27;17.72;98573.38;5087117;28;19923;-87
2023/11/23 04:07:49;;;;;;;;;;;;;;;23.32;17.70;98567.31;5092351;28;19920;-88
2023/11/23 04:10:15;;;;;;;;;;;;;;;23.18;17.86;98554.25;5093104;28;20391;-88
2023/11/23 04:12:41;;;;;;;;;;;;;;;23.02;18.19;98551.22;5095454;28;19916;-88
2023/11/23 04:15:08;;;;;;;;;;;;;;;22.79;18.43;98544.66;5091944;28;19995;-88
2023/11/23 04:17:34;;;;;;;;;;;;;;;22.81;18.45;98545.84;5089877;28;19920;-88
2023/11/23 04:20:00;;;;;;;;;;;;;;;22.77;18.39;98541.47;5092446;28;19912;-88
2023/11/23 04:22:26;;;;;;;;;;;;;;;22.82;18.48;98543.84;5085881;28;19931;-88
2023/11/23 04:24:52;;;;;;;;;;;;;;;22.87;18.23;98537.78;5088135;28;20391;-88
2023/11/23 04:27:18;;;;;;;;;;;;;;;22.75;18.38;98527.09;5080698;28;20388;-88
2023/11/23 04:29:44;;;;;;;;;;;;;;;22.70;18.25;98522.75;5085119;28;19927;-88
2023/11/23 04:32:11;;;;;;;;;;;;;;;22.71;18.46;98523.56;5076822;28;19921;-88
2023/11/23 04:34:37;;;;;;;;;;;;;;;22.93;18.27;98522.91;5088093;28;19935;-88
2023/11/23 04:37:04;;;;;;;;;;;;;;;23.07;18.18;98511.56;5078983;28;19928;-88
2023/11/23 04:39:31;;;;;;;;;;;;;;;23.17;17.90;98512.66;5077017;28;19920;-88
2023/11/23 04:41:57;;;;;;;;;;;;;;;23.19;18.03;98504.63;5082195;28;19927;-87
2023/11/23 04:44:25;;;;;;;;;;;;;;;23.27;18.04;98498.53;5092901;28;19916;-89
2023/11/23 04:46:51;;;;;;;;;;;;;;;23.30;17.78;98494.09;5080576;28;19962;-87
2023/11/23 04:49:17;;;;;;;;;;;;;;;23.06;18.12;98486.75;5081615;28;20286;-87
2023/11/23 04:51:43;;;;;;;;;;;;;;;22.93;18.39;98477.31;5083638;28;19944;-86
2023/11/23 04:54:09;;;;;;;;;;;;;;;22.99;18.08;98470.03;5088064;28;20016;-86
2023/11/23 04:56:35;;;;;;;;;;;;;;;22.81;18.23;98466.63;5084470;28;19969;-86
2023/11/23 04:59:02;;;;;;;;;;;;;;;22.62;18.45;98463.25;5077121;28;19920;-86
2023/11/23 05:01:29;;;;;;;;;;;;;;;22.73;18.36;98451.16;5079993;28;19920;-86
2023/11/23 05:03:55;;;;;;;;;;;;;;;22.72;18.52;98441.16;5078340;28;19920;-87
2023/11/23 05:06:21;;;;;;;;;;;;;;;22.91;18.19;98441.34;5085164;28;19928;-87
2023/11/23 05:08:47;;;;;;;;;;;;;;;23.00;18.08;98433.22;5086604;28;19919;-87
2023/11/23 05:11:14;;;;;;;;;;;;;;;23.08;17.69;98423.50;5093417;28;19923;-87
2023/11/23 05:13:40;;;;;;;;;;;;;;;22.97;17.88;98422.06;5088703;28;20375;-87
2023/11/23 05:16:06;;;;;;;;;;;;;;;23.06;17.90;98416.75;5083247;28;19923;-87
2023/11/23 05:18:32;;;;;;;;;;;;;;;22.88;17.90;98411.38;5086762;28;19924;-87
2023/11/23 05:20:58;;;;;;;;;;;;;;;23.10;17.68;98398.72;5078417;28;19989;-86
2023/11/23 05:23:24;;;;;;;;;;;;;;;23.29;17.46;98402.84;5080264;28;19974;-87
2023/11/23 05:25:51;;;;;;;;;;;;;;;23.04;17.59;98405.97;5083012;28;19965;-87
2023/11/23 05:28:18;;;;;;;;;;;;;;;22.92;17.67;98392.50;5090939;28;20260;-87
2023/11/23 05:30:47;;;;;;;;;;;;;;;23.09;17.23;98396.31;5083516;28;20493;-87
2023/11/23 05:33:13;;;;;;;;;;;;;;;23.22;17.55;98384.13;5078890;28;19920;-87
2023/11/23 05:35:40;;;;;;;;;;;;;;;23.23;17.48;98387.72;5076670;28;19921;-87
2023/11/23 05:38:06;;;;;;;;;;;;;;;23.20;17.32;98374.53;5081908;28;19931;-87
2023/11/23 05:40:32;;;;;;;;;;;;;;;23.05;17.75;98384.38;5084328;28;20386;-86
2023/11/23 05:42:58;;;;;;;;;;;;;;;22.87;17.75;98387.38;5087587;28;20383;-86
2023/11/23 05:45:24;;;;;;;;;;;;;;;22.72;17.92;98388.75;5075937;28;19961;-86
2023/11/23 05:47:51;;;;;;;;;;;;;;;22.61;18.03;98385.31;5091536;28;20347;-86
2023/11/23 05:50:17;;;;;;;;;;;;;;;22.77;17.70;98374.31;5094148;28;20364;-87
2023/11/23 05:52:43;;;;;;;;;;;;;;;22.92;17.88;98370.13;5094129;28;19974;-86
2023/11/23 05:55:09;;;;;;;;;;;;;;;22.99;17.80;98364.41;5084541;28;20365;-86
2023/11/23 05:57:36;;;;;;;;;;;;;;;23.13;17.45;98363.44;5092331;28;19927;-86
2023/11/23 06:00:04;;;;;;;;;;;;;;;23.10;17.47;98362.28;5091395;28;20515;-86
2023/11/23 06:02:30;;;;;;;;;;;;;;;23.24;17.46;98352.91;5078319;28;20024;-86
2023/11/23 06:04:56;;;;;;;;;;;;;;;23.11;17.50;98344.25;5081378;28;19920;-86
2023/11/23 06:07:22;;;;;;;;;;;;;;;22.80;17.75;98348.25;5087027;28;19924;-86
2023/11/23 06:09:51;;;;;;;;;;;;;;;22.62;17.92;98345.69;5075967;28;20375;-86
2023/11/23 06:12:17;;;;;;;;;;;;;;;22.67;18.17;98345.22;5079327;28;19966;-87
2023/11/23 06:14:43;;;;;;;;;;;;;;;22.63;17.92;98338.09;5083356;28;19972;-86
2023/11/23 06:17:14;;;;;;;;;;;;;;;22.23;18.32;98339.72;5084250;28;19928;-86
2023/11/23 06:19:41;;;;;;;;;;;;;;;21.99;18.86;98335.16;5083561;28;20021;-89
2023/11/23 06:22:07;;;;;;;;;;;;;;;22.25;18.68;98331.69;5076604;28;19920;-89
2023/11/23 06:24:33;;;;;;;;;;;;;;;22.51;18.22;98322.63;5083594;28;19935;-89
2023/11/23 06:26:59;;;;;;;;;;;;;;;22.48;18.44;98315.03;5087830;28;20406;-89
2023/11/23 06:29:25;;;;;;;;;;;;;;;22.59;18.35;98318.50;5083385;28;20295;-89
2023/11/23 06:31:51;;;;;;;;;;;;;;;22.75;17.94;98309.56;5080971;28;19935;-89
2023/11/23 06:34:17;;;;;;;;;;;;;;;22.77;18.04;98306.31;5081000;28;20008;-87
2023/11/23 06:36:44;;;;;;;;;;;;;;;22.81;18.07;98296.66;5092996;28;19927;-88
2023/11/23 06:39:11;;;;;;;;;;;;;;;22.85;18.05;98286.22;5087358;28;19970;-87
2023/11/23 06:41:37;;;;;;;;;;;;;;;22.61;18.24;98287.34;5089243;28;19920;-88
2023/11/23 06:44:03;;;;;;;;;;;;;;;22.44;18.62;98286.31;5093648;28;19927;-88
2023/11/23 06:46:29;;;;;;;;;;;;;;;22.07;18.96;98283.56;5093318;28;20361;-87
2023/11/23 06:48:56;;;;;;;;;;;;;;;21.81;19.19;98286.97;5089751;28;19928;-88
2023/11/23 06:51:22;;;;;;;;;;;;;;;22.11;19.07;98289.09;5086743;28;20098;-86
2023/11/23 06:53:48;;;;;;;;;;;;;;;22.12;19.13;98291.50;5084847;28;20339;-87
2023/11/23 06:56:15;;;;;;;;;;;;;;;22.56;18.61;98288.56;5087430;28;19949;-87
2023/11/23 06:58:47;;;;;;;;;;;;;;;22.72;18.49;98288.00;5094493;28;19981;-86
2023/11/23 07:01:14;;;;;;;;;;;;;;;22.75;18.38;98280.78;5092649;28;19929;-87
2023/11/23 07:03:41;;;;;;;;;;;;;;;22.42;19.11;98285.16;5092310;28;19935;-87
2023/11/23 07:06:08;;;;;;;;;;;;;;;22.64;18.85;98267.69;5095779;28;19927;-86
2023/11/23 07:08:37;;;;;;;;;;;;;;;22.59;18.49;98258.97;5089392;28;20294;-88
2023/11/23 07:11:06;;;;;;;;;;;;;;;22.61;19.01;98251.75;5093619;28;19985;-87
2023/11/23 07:13:33;;;;;;;;;;;;;;;23.05;18.76;98258.34;5096159;28;19935;-87
2023/11/23 07:16:01;;;;;;;;;;;;;;;22.35;18.71;98263.66;5093448;28;19924;-86
2023/11/23 07:18:27;;;;;;;;;;;;;;;22.43;18.93;98265.13;5071359;28;19920;-86
2023/11/23 07:20:53;;;;;;;;;;;;;;;22.69;18.60;98253.25;5092311;28;19917;-86
2023/11/23 07:23:19;;;;;;;;;;;;;;;22.61;18.67;98259.38;5091888;28;19932;-86
2023/11/23 07:25:46;;;;;;;;;;;;;;;22.27;19.16;98270.53;5092271;28;19947;-86
2023/11/23 07:28:12;;;;;;;;;;;;;;;22.36;19.07;98258.81;5092019;28;19943;-87
2023/11/23 07:30:38;;;;;;;;;;;;;;;22.73;18.75;98252.41;5089227;28;19927;-87
2023/11/23 07:33:04;;;;;;;;;;;;;;;22.79;18.70;98231.13;5093488;28;19928;-87
2023/11/23 07:35:31;;;;;;;;;;;;;;;22.84;18.66;98227.84;5092847;28;20398;-86
2023/11/23 07:37:57;;;;;;;;;;;;;;;22.37;18.86;98227.66;5086237;28;20336;-87
2023/11/23 07:40:23;;;;;;;;;;;;;;;22.43;19.01;98219.56;5094790;28;19926;-86
2023/11/23 07:42:50;;;;;;;;;;;;;;;22.08;19.07;98212.41;5098590;28;19929;-87
2023/11/23 07:45:16;;;;;;;;;;;;;;;22.73;18.91;98213.22;5086796;28;20372;-85
2023/11/23 07:47:43;;;;;;;;;;;;;;;22.73;19.02;98196.44;5091147;28;19924;-86
2023/11/23 07:50:10;;;;;;;;;;;;;;;22.78;19.01;98188.31;5083333;28;19957;-85
2023/11/23 07:52:36;;;;;;;;;;;;;;;22.85;18.67;98184.66;5082144;28;20414;-85
2023/11/23 07:55:02;;;;;;;;;;;;;;;22.73;18.93;98188.03;5075179;28;19924;-85
2023/11/23 07:57:28;;;;;;;;;;;;;;;22.16;19.49;98201.94;5091994;28;19924;-85
2023/11/23 07:59:56;;;;;;;;;;;;;;;22.21;19.22;98198.69;5094935;28;19973;-85
2023/11/23 08:02:23;;;;;;;;;;;;;;;22.45;19.17;98189.97;5094847;28;19928;-84
2023/11/23 08:04:50;;;;;;;;;;;;;;;21.99;19.44;98198.16;5097813;28;19920;-84
2023/11/23 08:07:16;;;;;;;;;;;;;;;21.86;19.97;98197.13;5094572;28;19920;-85
2023/11/23 08:09:42;;;;;;;;;;;;;;;22.11;20.04;98175.25;5090835;28;19924;-84
2023/11/23 08:12:09;;;;;;;;;;;;;;;21.96;19.94;98179.44;5094671;28;19916;-85
2023/11/23 08:14:39;;;;;;;;;;;;;;;21.99;20.06;98170.19;5083724;28;19920;-86
2023/11/23 08:17:05;;;;;;;;;;;;;;;21.38;20.48;98182.41;5083053;28;19927;-84
2023/11/23 08:19:32;;;;;;;;;;;;;;;21.70;19.99;98174.50;5090820;28;20287;-84
2023/11/23 08:21:58;;;;;;;;;;;;;;;21.66;20.18;98173.72;5090351;28;19920;-84
2023/11/23 08:24:24;;;;;;;;;;;;;;;22.07;19.69;98156.94;5085103;28;20423;-84
2023/11/23 08:26:50;;;;;;;;;;;;;;;21.79;20.26;98169.22;5084976;28;20382;-84
2023/11/23 08:29:16;;;;;;;;;;;;;;;21.63;20.17;98164.19;5089545;28;19920;-86
2023/11/23 08:31:43;;;;;;;;;;;;;;;21.26;20.80;98159.38;5091148;28;19923;-84
2023/11/23 08:34:10;;;;;;;;;;;;;;;20.82;21.03;98166.91;5090868;28;20019;-84
2023/11/23 08:36:36;;;;;;;;;;;;;;;21.32;20.84;98168.91;5082292;28;19924;-84
2023/11/23 08:39:04;;;;;;;;;;;;;;;20.73;21.91;98164.56;5085849;28;19969;-83
2023/11/23 08:41:34;;;;;;;;;;;;;;;20.84;21.54;98170.84;5089759;28;19972;-83
2023/11/23 08:44:04;;;;;;;;;;;;;;;20.95;21.30;98154.03;5087840;28;19928;-83
2023/11/23 08:46:30;;;;;;;;;;;;;;;21.33;21.14;98145.34;5088191;28;20442;-84
2023/11/23 08:48:56;;;;;;;;;;;;;;;21.96;20.27;98134.72;5086954;28;19920;-83
2023/11/23 08:51:22;;;;;;;;;;;;;;;22.40;19.97;98144.91;5087657;28;19924;-83
2023/11/23 08:53:49;;;;;;;;;;;;;;;21.71;20.56;98145.34;5083754;28;19931;-82
2023/11/23 08:56:16;;;;;;;;;;;;;;;22.19;19.95;98143.19;5088722;28;19920;-82
2023/11/23 08:58:42;;;;;;;;;;;;;;;22.80;20.24;98146.69;5086295;28;20403;-83
2023/11/23 09:01:08;;;;;;;;;;;;;;;23.16;19.69;98141.31;5087549;28;20434;-83
2023/11/23 09:03:37;;;;;;;;;;;;;;;23.66;19.37;98144.03;5089674;28;19973;-83
2023/11/23 09:06:03;;;;;;;;;;;;;;;24.03;19.11;98141.69;5091087;28;19921;-83
2023/11/23 09:08:29;;;;;;;;;;;;;;;23.64;19.24;98140.88;5083352;28;19924;-83
2023/11/23 09:10:55;;;;;;;;;;;;;;;24.14;18.79;98138.69;5073389;28;19920;-83
2023/11/23 09:13:22;;;;;;;;;;;;;;;24.19;18.86;98143.00;5089396;28;20367;-83
2023/11/23 09:15:48;;;;;;;;;;;;;;;24.16;19.48;98138.25;5090116;28;20022;-83
2023/11/23 09:18:17;;;;;;;;;;;;;;;23.28;19.78;98129.50;5084109;28;19921;-83
2023/11/23 09:20:44;;;;;;;;;;;;;;;23.95;19.54;98119.81;5087941;28;19921;-83
2023/11/23 09:23:10;;;;;;;;;;;;;;;24.43;19.02;98108.00;5076752;28;19925;-83
2023/11/23 09:25:38;;;;;;;;;;;;;;;24.81;19.20;98094.28;5085737;28;20363;-83
2023/11/23 09:28:05;;;;;;;;;;;;;;;24.47;18.79;98081.41;5087671;28;19946;-83
2023/11/23 09:30:31;;;;;;;;;;;;;;;24.80;18.99;98090.69;5090596;28;19931;-84
2023/11/23 09:32:57;;;;;;;;;;;;;;;24.17;19.37;98094.94;5086004;28;19928;-84
2023/11/23 09:35:23;;;;;;;;;;;;;;;23.22;19.99;98092.00;5081842;28;19924;-84
2023/11/23 09:37:53;;;;;;;;;;;;;;;23.30;20.12;98083.03;5086409;28;20492;-83
2023/11/23 09:40:20;;;;;;;;;;;;;;;23.51;20.31;98073.44;5086959;28;20400;-84
2023/11/23 09:42:49;;;;;;;;;;;;;;;23.43;20.56;98058.03;5085166;28;19935;-84
2023/11/23 09:45:20;;;;;;;;;;;;;;;23.46;20.50;98059.94;5084691;28;19921;-84
2023/11/23 09:47:50;;;;;;;;;;;;;;;23.21;21.20;98062.41;5087814;28;19931;-84
2023/11/23 09:50:17;;;;;;;;;;;;;;;22.23;21.03;98053.63;5086269;28;19932;-83
2023/11/23 09:52:45;;;;;;;;;;;;;;;21.93;22.41;98041.28;5084333;28;19966;-84
2023/11/23 09:55:12;;;;;;;;;;;;;;;22.30;21.36;98040.34;5084449;28;20323;-83
2023/11/23 09:57:40;;;;;;;;;;;;;;;22.60;21.38;98036.66;5080642;28;19916;-83
2023/11/23 10:00:09;;;;;;;;;;;;;;;22.79;21.04;98021.16;5081589;28;19931;-84
2023/11/23 10:02:36;;;;;;;;;;;;;;;22.98;20.90;98026.03;5083596;28;19968;-84
2023/11/23 10:05:05;;;;;;;;;;;;;;;23.42;20.65;98017.19;5081516;28;19928;-83
2023/11/23 10:07:32;;;;;;;;;;;;;;;23.40;21.00;98011.25;5078228;28;19924;-84
2023/11/23 10:10:01;;;;;;;;;;;;;;;23.05;21.33;97995.09;5078441;28;20426;-83
2023/11/23 10:12:27;;;;;;;;;;;;;;;22.68;21.48;97996.19;5079898;28;20387;-85
2023/11/23 10:14:53;;;;;;;;;;;;;;;23.08;21.04;97985.84;5083382;28;20050;-85
2023/11/23 10:17:20;;;;;;;;;;;;;;;23.57;20.68;97982.03;5088046;28;19923;-85
2023/11/23 10:19:46;;;;;;;;;;;;;;;23.53;20.46;97984.13;5083707;28;20435;-84
2023/11/23 10:22:15;;;;;;;;;;;;;;;23.81;20.64;97975.09;5084315;28;19938;-83
2023/11/23 10:24:50;;;;;;;;;;;;;;;23.76;20.83;97972.00;5082450;28;20384;-84
2023/11/23 10:27:16;;;;;;;;;;;;;;;24.13;20.61;97962.41;5086334;28;19960;-85
2023/11/23 10:29:42;;;;;;;;;;;;;;;24.13;20.53;97951.19;5082791;28;20335;-84
2023/11/23 10:32:09;;;;;;;;;;;;;;;23.52;21.31;97942.53;5073125;28;20399;-84
2023/11/23 10:34:37;;;;;;;;;;;;;;;23.18;21.63;97940.00;5086363;28;19938;-84
2023/11/23 10:37:05;;;;;;;;;;;;;;;22.10;22.25;97941.56;5080388;28;19920;-85
2023/11/23 10:39:31;;;;;;;;;;;;;;;21.92;22.60;97930.66;5079820;28;19921;-84
2023/11/23 10:41:59;;;;;;;;;;;;;;;22.69;22.09;97936.19;5080526;28;19981;-85
2023/11/23 10:44:29;;;;;;;;;;;;;;;21.83;23.15;97941.56;5084582;28;19916;-84
2023/11/23 10:47:02;;;;;;;;;;;;;;;22.15;22.76;97941.09;5077198;28;20306;-85
2023/11/23 10:49:32;;;;;;;;;;;;;;;22.79;22.01;97928.78;5085537;28;20326;-85
2023/11/23 10:51:59;;;;;;;;;;;;;;;22.70;21.94;97926.56;5084711;28;19928;-84
2023/11/23 10:54:25;;;;;;;;;;;;;;;22.56;22.90;97943.59;5071484;28;20383;-84
2023/11/23 10:56:54;;;;;;;;;;;;;;;22.63;22.78;97924.69;5085923;28;19975;-85
2023/11/23 10:59:22;;;;;;;;;;;;;;;22.76;22.20;97902.44;5081104;28;19921;-85
2023/11/23 11:01:50;;;;;;;;;;;;;;;23.36;21.79;97896.41;5081333;28;19934;-87
2023/11/23 11:04:16;;;;;;;;;;;;;;;23.09;22.45;97893.00;5076735;28;19927;-87
2023/11/23 11:06:44;;;;;;;;;;;;;;;23.61;21.43;97886.69;5088576;28;19924;-85
2023/11/23 11:09:15;;;;;;;;;;;;;;;24.02;21.32;97870.03;5088592;28;19920;-86
2023/11/23 11:11:45;;;;;;;;;;;;;;;24.30;21.61;97865.75;5085445;28;19927;-85
2023/11/23 11:14:16;;;;;;;;;;;;;;;23.70;20.98;97864.44;5084661;28;19920;-84
2023/11/23 11:16:42;;;;;;;;;;;;;;;23.98;21.58;97869.34;5079173;28;20276;-85
2023/11/23 11:19:11;;;;;;;;;;;;;;;24.14;21.02;97869.38;5075449;28;19928;-85
2023/11/23 11:21:42;;;;;;;;;;;;;;;23.92;21.48;97865.50;5071285;28;20058;-85
2023/11/23 11:24:23;;;;;;;;;;;;;;;24.42;20.97;97846.19;5064661;28;19925;-85
2023/11/23 11:26:50;;;;;;;;;;;;;;;24.35;20.95;97837.97;5062822;28;19920;-85
2023/11/23 11:29:17;;;;;;;;;;;;;;;24.26;21.24;97837.81;5064101;28;20026;-85
2023/11/23 11:31:44;;;;;;;;;;;;;;;23.81;21.54;97834.13;5064654;28;19931;-86
2023/11/23 11:34:20;;;;;;;;;;;;;;;23.67;21.32;97835.25;5064169;28;19917;-84
2023/11/23 11:36:58;;;;;;;;;;;;;;;24.03;21.66;97821.94;5062421;28;22231;-85
2023/11/23 11:39:37;;;;;;;;;;;;;;;24.11;21.36;97804.97;5070328;28;20283;-85
2023/11/23 11:42:04;;;;;;;;;;;;;;;24.27;20.85;97800.09;5066491;28;20050;-86
2023/11/23 11:44:33;;;;;;;;;;;;;;;24.24;21.10;97786.16;5071232;28;19921;-85
2023/11/23 11:46:59;;;;;;;;;;;;;;;24.44;20.90;97793.19;5062328;28;19939;-84
2023/11/23 11:49:26;;;;;;;;;;;;;;;24.55;20.49;97773.28;5057655;28;20007;-85
2023/11/23 11:51:52;;;;;;;;;;;;;;;24.71;20.49;97770.41;5064749;28;19921;-85
2023/11/23 11:54:28;;;;;;;;;;;;;;;24.64;20.91;97756.56;5062757;28;19928;-86
2023/11/23 11:56:54;;;;;;;;;;;;;;;25.04;20.71;97746.53;5068431;28;20147;-86
2023/11/23 11:59:20;;;;;;;;;;;;;;;25.07;20.59;97748.44;5074167;28;20380;-85
2023/11/23 12:01:47;;;;;;;;;;;;;;;24.26;20.86;97756.44;5074388;28;20403;-84
2023/11/23 12:04:15;;;;;;;;;;;;;;;24.27;21.82;97762.84;5074472;28;19982;-85
2023/11/23 12:06:41;;;;;;;;;;;;;;;23.69;21.84;97764.75;5073945;28;19920;-85
2023/11/23 12:09:19;;;;;;;;;;;;;;;23.92;21.61;97753.34;5071897;28;19921;-86
2023/11/23 12:11:46;;;;;;;;;;;;;;;24.60;21.07;97744.63;5063511;28;19928;-83
2023/11/23 12:14:12;;;;;;;;;;;;;;;25.00;20.72;97731.81;5064125;28;19962;-86
2023/11/23 12:16:38;;;;;;;;;;;;;;;25.55;20.46;97729.69;5062534;28;19952;-86
2023/11/23 12:19:14;;;;;;;;;;;;;;;25.17;20.30;97732.50;5067817;28;20426;-85
2023/11/23 12:21:40;;;;;;;;;;;;;;;25.21;20.58;97724.72;5070089;28;20376;-85
2023/11/23 12:24:07;;;;;;;;;;;;;;;25.35;20.91;97713.03;5076968;28;19970;-86
2023/11/23 12:26:37;;;;;;;;;;;;;;;25.40;20.59;97710.44;5082860;28;20461;-85
2023/11/23 12:29:04;;;;;;;;;;;;;;;24.68;20.80;97695.47;5066260;28;19954;-85
2023/11/23 12:31:30;;;;;;;;;;;;;;;23.40;22.37;97696.63;5089285;28;20028;-87
2023/11/23 12:33:56;;;;;;;;;;;;;;;23.08;23.89;97695.38;5084925;28;19958;-85
2023/11/23 12:36:22;;;;;;;;;;;;;;;23.10;22.58;97701.34;5086903;28;19925;-85
2023/11/23 12:38:49;;;;;;;;;;;;;;;23.58;22.26;97699.75;5084612;28;19920;-84
2023/11/23 12:41:15;;;;;;;;;;;;;;;23.70;24.15;97697.03;5090097;28;19943;-84
2023/11/23 12:43:41;;;;;;;;;;;;;;;22.96;22.70;97690.47;5084168;28;19920;-84
2023/11/23 12:46:07;;;;;;;;;;;;;;;22.18;23.68;97694.16;5089939;28;19919;-84